Time;durP1;ratioP1;P1;durP2;ratioP2;P2;SDS_P1;SDS_P2;PMS_P1;PMS_P2;Temp;Humidity;BMP_temperature;BMP_pressure;BME280_temperature;BME280_humidity;BME280_pressure;Samples;Min_cycle;Max_cycle;Signal;HPM_P1;HPM_P2
2023/09/16 00:00:09;;;;;;;4.40;3.33;;;;;;;;;;4957017;29;20699;-79
2023/09/16 00:02:36;;;;;;;3.27;2.97;;;;;;;;;;4954711;29;20568;-79
2023/09/16 00:05:03;;;;;;;3.50;3.00;;;;;;;;;;4952162;29;20215;-79
2023/09/16 00:07:30;;;;;;;3.07;2.87;;;;;;;;;;4950322;28;20205;-79
2023/09/16 00:09:56;;;;;;;3.30;3.00;;;;;;;;;;4950293;29;20178;-79
2023/09/16 00:12:23;;;;;;;2.90;2.70;;;;;;;;;;4951206;29;20240;-79
2023/09/16 00:14:50;;;;;;;3.30;3.00;;;;;;;;;;4949939;29;20189;-79
2023/09/16 00:17:16;;;;;;;3.00;2.80;;;;;;;;;;4949828;28;20216;-79
2023/09/16 00:19:42;;;;;;;3.50;3.20;;;;;;;;;;4948837;29;20255;-79
2023/09/16 00:22:10;;;;;;;4.70;2.90;;;;;;;;;;4951109;28;20638;-79
2023/09/16 00:24:36;;;;;;;3.40;3.10;;;;;;;;;;4948617;29;20189;-79
2023/09/16 00:27:03;;;;;;;3.93;2.77;;;;;;;;;;4951934;29;20231;-80
2023/09/16 00:29:30;;;;;;;3.10;2.80;;;;;;;;;;4919638;29;20657;-79
2023/09/16 00:31:56;;;;;;;3.40;3.10;;;;;;;;;;4950989;29;20707;-79
2023/09/16 00:34:22;;;;;;;4.30;3.30;;;;;;;;;;4934381;29;20567;-80
2023/09/16 00:36:49;;;;;;;3.80;3.40;;;;;;;;;;4950670;28;20213;-80
2023/09/16 00:39:16;;;;;;;3.90;3.30;;;;;;;;;;4950461;28;20225;-79
2023/09/16 00:41:43;;;;;;;3.80;3.33;;;;;;;;;;4948405;29;20739;-79
2023/09/16 00:44:10;;;;;;;3.70;3.40;;;;;;;;;;4949308;29;20220;-80
2023/09/16 00:46:37;;;;;;;3.60;3.30;;;;;;;;;;4952166;28;20216;-79
2023/09/16 00:49:04;;;;;;;4.70;3.20;;;;;;;;;;4953467;29;20181;-80
2023/09/16 00:51:30;;;;;;;3.80;3.50;;;;;;;;;;4952876;29;20190;-79
2023/09/16 00:53:57;;;;;;;3.63;3.33;;;;;;;;;;4952999;29;20761;-80
2023/09/16 00:56:27;;;;;;;3.70;3.27;;;;;;;;;;4934022;29;20190;-79
2023/09/16 00:58:54;;;;;;;3.90;3.60;;;;;;;;;;4951683;29;20213;-80
2023/09/16 01:01:22;;;;;;;4.03;3.47;;;;;;;;;;4954366;28;20676;-79
2023/09/16 01:03:49;;;;;;;3.70;3.40;;;;;;;;;;4969221;28;20765;-79
2023/09/16 01:06:19;;;;;;;4.97;3.37;;;;;;;;;;4952570;29;20187;-79
2023/09/16 01:08:46;;;;;;;3.60;3.30;;;;;;;;;;4956405;28;20200;-80
2023/09/16 01:11:13;;;;;;;4.40;3.50;;;;;;;;;;4956243;28;20776;-80
2023/09/16 01:13:39;;;;;;;3.43;3.17;;;;;;;;;;4954701;28;20243;-80
2023/09/16 01:16:17;;;;;;;3.50;3.20;;;;;;;;;;4950319;29;20220;-80
2023/09/16 01:18:46;;;;;;;5.43;4.13;;;;;;;;;;4955953;29;20201;-81
2023/09/16 01:21:13;;;;;;;4.00;3.60;;;;;;;;;;4968847;28;20340;-81
2023/09/16 01:23:39;;;;;;;3.87;3.50;;;;;;;;;;4935238;28;20213;-81
2023/09/16 01:26:06;;;;;;;3.80;3.50;;;;;;;;;;4953812;28;20189;-81
2023/09/16 01:28:32;;;;;;;3.97;3.57;;;;;;;;;;4953785;28;20201;-81
2023/09/16 01:30:59;;;;;;;3.73;3.43;;;;;;;;;;4971731;28;20276;-81
2023/09/16 01:33:36;;;;;;;3.63;3.33;;;;;;;;;;4971680;28;20243;-81
2023/09/16 01:36:07;;;;;;;3.67;3.33;;;;;;;;;;4955127;29;20197;-82
2023/09/16 01:38:35;;;;;;;4.27;3.47;;;;;;;;;;4954835;29;20194;-80
2023/09/16 01:41:02;;;;;;;4.10;3.70;;;;;;;;;;4953606;29;20181;-81
2023/09/16 01:43:28;;;;;;;4.20;3.80;;;;;;;;;;4955782;29;20572;-81
2023/09/16 01:45:54;;;;;;;3.60;3.30;;;;;;;;;;4953575;29;20212;-82
2023/09/16 01:48:21;;;;;;;4.00;3.60;;;;;;;;;;4940671;29;20201;-80
2023/09/16 01:50:47;;;;;;;4.13;3.73;;;;;;;;;;4956073;28;20719;-81
2023/09/16 01:53:16;;;;;;;4.33;3.93;;;;;;;;;;4956398;29;20193;-82
2023/09/16 01:55:42;;;;;;;3.70;3.40;;;;;;;;;;4955436;28;20190;-82
2023/09/16 01:58:09;;;;;;;3.90;3.60;;;;;;;;;;4950533;28;20702;-80
2023/09/16 02:00:36;;;;;;;4.33;3.70;;;;;;;;;;4952154;29;20189;-81
2023/09/16 02:03:02;;;;;;;4.60;4.20;;;;;;;;;;4934557;29;20212;-81
2023/09/16 02:05:29;;;;;;;3.97;3.67;;;;;;;;;;4952330;28;20185;-81
2023/09/16 02:07:57;;;;;;;4.47;3.93;;;;;;;;;;4965851;28;20278;-81
2023/09/16 02:10:24;;;;;;;4.20;3.80;;;;;;;;;;4951881;29;20639;-80
2023/09/16 02:12:51;;;;;;;4.70;3.80;;;;;;;;;;4951767;29;20763;-79
2023/09/16 02:15:18;;;;;;;4.30;4.00;;;;;;;;;;4951384;29;20195;-80
2023/09/16 02:17:45;;;;;;;4.63;3.53;;;;;;;;;;4946028;28;20213;-80
2023/09/16 02:20:12;;;;;;;3.90;3.50;;;;;;;;;;4947956;29;20213;-80
2023/09/16 02:22:39;;;;;;;4.17;3.87;;;;;;;;;;4946879;29;20209;-80
2023/09/16 02:25:05;;;;;;;4.17;3.80;;;;;;;;;;4951212;28;20680;-79
2023/09/16 02:27:32;;;;;;;3.80;3.50;;;;;;;;;;4949169;29;20248;-79
2023/09/16 02:29:58;;;;;;;3.83;3.40;;;;;;;;;;4951904;29;20224;-79
2023/09/16 02:32:24;;;;;;;3.93;3.53;;;;;;;;;;4951306;29;20408;-79
2023/09/16 02:34:50;;;;;;;4.93;4.10;;;;;;;;;;4951721;29;20236;-80
2023/09/16 02:37:20;;;;;;;4.50;3.60;;;;;;;;;;4947644;29;20589;-79
2023/09/16 02:39:46;;;;;;;4.30;3.90;;;;;;;;;;4950387;29;20224;-79
2023/09/16 02:42:13;;;;;;;3.80;3.50;;;;;;;;;;4951223;29;20236;-79
2023/09/16 02:44:39;;;;;;;3.80;3.40;;;;;;;;;;4948982;29;20265;-79
2023/09/16 02:47:05;;;;;;;4.00;3.60;;;;;;;;;;4951918;28;20209;-80
2023/09/16 02:49:33;;;;;;;4.00;3.60;;;;;;;;;;4946890;29;20177;-79
2023/09/16 02:51:59;;;;;;;3.90;3.60;;;;;;;;;;4951747;28;20189;-79
2023/09/16 02:54:25;;;;;;;4.17;3.77;;;;;;;;;;4931530;29;20661;-80
2023/09/16 02:56:51;;;;;;;3.73;3.43;;;;;;;;;;4949457;29;20213;-80
2023/09/16 02:59:19;;;;;;;3.97;3.57;;;;;;;;;;4950546;29;20274;-80
2023/09/16 03:01:45;;;;;;;3.80;3.50;;;;;;;;;;4950206;29;20268;-80
2023/09/16 03:04:11;;;;;;;3.80;3.50;;;;;;;;;;4931550;29;20189;-79
2023/09/16 03:06:37;;;;;;;3.67;3.37;;;;;;;;;;4941657;29;20289;-80
2023/09/16 03:09:04;;;;;;;4.27;3.87;;;;;;;;;;4952595;28;20730;-80
2023/09/16 03:11:30;;;;;;;4.20;3.80;;;;;;;;;;4932968;29;21044;-80
2023/09/16 03:13:57;;;;;;;5.03;4.50;;;;;;;;;;4949732;29;20200;-80
2023/09/16 03:16:24;;;;;;;5.20;4.63;;;;;;;;;;4934121;29;20215;-80
2023/09/16 03:18:56;;;;;;;8.40;4.57;;;;;;;;;;4948835;29;20692;-80
2023/09/16 03:21:25;;;;;;;5.60;4.67;;;;;;;;;;4915690;29;20209;-80
2023/09/16 03:23:55;;;;;;;5.10;4.60;;;;;;;;;;4933083;29;20213;-80
2023/09/16 03:26:22;;;;;;;5.23;4.80;;;;;;;;;;4950564;29;20189;-79
2023/09/16 03:28:53;;;;;;;5.87;5.17;;;;;;;;;;4948645;28;21226;-80
2023/09/16 03:31:23;;;;;;;5.17;4.77;;;;;;;;;;4947546;29;20544;-80
2023/09/16 03:33:49;;;;;;;5.90;5.30;;;;;;;;;;4950039;29;20218;-80
2023/09/16 03:36:15;;;;;;;8.10;5.17;;;;;;;;;;4960253;28;20181;-80
2023/09/16 03:38:46;;;;;;;7.07;5.27;;;;;;;;;;4949201;29;20196;-80
2023/09/16 03:41:13;;;;;;;5.90;5.33;;;;;;;;;;4949285;29;20219;-80
2023/09/16 03:43:40;;;;;;;5.30;4.80;;;;;;;;;;4934704;29;20596;-80
2023/09/16 03:46:07;;;;;;;6.00;4.93;;;;;;;;;;4950419;29;20173;-80
2023/09/16 03:48:33;;;;;;;6.47;4.73;;;;;;;;;;4938362;28;20208;-80
2023/09/16 03:50:59;;;;;;;6.60;4.90;;;;;;;;;;4933136;29;20196;-79
2023/09/16 03:53:26;;;;;;;5.57;5.07;;;;;;;;;;4946303;28;20611;-80
2023/09/16 03:55:54;;;;;;;5.23;4.50;;;;;;;;;;4940958;28;20199;-80
2023/09/16 03:58:20;;;;;;;5.80;5.20;;;;;;;;;;4951001;29;20395;-80
2023/09/16 04:00:47;;;;;;;5.70;4.80;;;;;;;;;;4966273;28;20201;-80
2023/09/16 04:03:14;;;;;;;5.53;5.03;;;;;;;;;;4949551;29;20336;-80
2023/09/16 04:05:40;;;;;;;5.97;5.27;;;;;;;;;;4949481;29;20603;-80
2023/09/16 04:08:06;;;;;;;6.10;5.37;;;;;;;;;;4950662;28;20201;-80
2023/09/16 04:10:32;;;;;;;5.67;5.07;;;;;;;;;;4951722;28;20181;-80
2023/09/16 04:12:59;;;;;;;5.77;5.23;;;;;;;;;;4951473;28;20189;-80
2023/09/16 04:15:25;;;;;;;5.80;5.30;;;;;;;;;;4948047;29;20335;-80
2023/09/16 04:17:51;;;;;;;5.73;5.13;;;;;;;;;;4948875;29;20233;-80
2023/09/16 04:20:24;;;;;;;5.93;5.33;;;;;;;;;;4936230;29;20196;-80
2023/09/16 04:22:50;;;;;;;6.03;5.40;;;;;;;;;;4953386;29;20224;-80
2023/09/16 04:25:16;;;;;;;5.47;4.97;;;;;;;;;;4937501;29;20181;-81
2023/09/16 04:27:43;;;;;;;5.70;5.20;;;;;;;;;;4953626;29;20213;-80
2023/09/16 04:30:09;;;;;;;5.57;5.07;;;;;;;;;;4953890;29;20185;-81
2023/09/16 04:32:35;;;;;;;5.90;5.40;;;;;;;;;;4953854;29;20189;-80
2023/09/16 04:35:01;;;;;;;5.57;5.07;;;;;;;;;;4938128;29;20220;-80
2023/09/16 04:37:28;;;;;;;6.00;5.40;;;;;;;;;;4953344;29;20228;-79
2023/09/16 04:39:54;;;;;;;5.57;4.97;;;;;;;;;;4953377;29;20189;-80
2023/09/16 04:42:21;;;;;;;5.60;5.10;;;;;;;;;;4953188;29;20222;-79
2023/09/16 04:44:48;;;;;;;6.00;5.50;;;;;;;;;;4952552;29;20189;-80
2023/09/16 04:47:14;;;;;;;6.33;5.43;;;;;;;;;;4952003;29;20257;-80
2023/09/16 04:49:41;;;;;;;6.33;5.73;;;;;;;;;;4953329;29;20649;-79
2023/09/16 04:52:08;;;;;;;9.23;5.77;;;;;;;;;;4952557;29;20201;-80
2023/09/16 04:54:35;;;;;;;6.50;5.90;;;;;;;;;;4937209;29;20185;-79
2023/09/16 04:57:02;;;;;;;6.27;5.70;;;;;;;;;;4948225;29;20268;-80
2023/09/16 04:59:32;;;;;;;6.40;5.80;;;;;;;;;;4932721;29;20277;-80
2023/09/16 05:02:00;;;;;;;7.20;6.50;;;;;;;;;;4940883;29;20252;-80
2023/09/16 05:04:26;;;;;;;7.00;6.30;;;;;;;;;;4936648;29;20231;-79
2023/09/16 05:06:53;;;;;;;6.67;6.00;;;;;;;;;;4950553;29;20803;-80
2023/09/16 05:09:21;;;;;;;7.63;6.83;;;;;;;;;;4947050;28;20186;-80
2023/09/16 05:11:48;;;;;;;6.83;6.23;;;;;;;;;;4951061;29;20327;-80
2023/09/16 05:14:15;;;;;;;8.40;7.30;;;;;;;;;;4952110;29;20181;-79
2023/09/16 05:16:42;;;;;;;7.60;6.53;;;;;;;;;;4951965;29;20217;-81
2023/09/16 05:19:09;;;;;;;8.10;6.90;;;;;;;;;;4935911;29;20181;-80
2023/09/16 05:21:35;;;;;;;7.80;7.00;;;;;;;;;;4936737;29;20204;-80
2023/09/16 05:24:01;;;;;;;7.63;6.93;;;;;;;;;;4952045;29;20217;-79
2023/09/16 05:26:30;;;;;;;7.93;7.23;;;;;;;;;;4937226;29;20201;-81
2023/09/16 05:28:57;;;;;;;8.60;7.67;;;;;;;;;;4950648;28;20746;-80
2023/09/16 05:31:26;;;;;;;8.83;7.60;;;;;;;;;;4949022;28;20185;-81
2023/09/16 05:33:52;;;;;;;8.10;6.80;;;;;;;;;;4950550;29;20211;-81
2023/09/16 05:36:20;;;;;;;8.20;7.40;;;;;;;;;;4948326;29;20194;-80
2023/09/16 05:38:46;;;;;;;8.27;7.47;;;;;;;;;;4933231;29;20190;-80
2023/09/16 05:41:13;;;;;;;7.73;6.97;;;;;;;;;;4953171;28;20209;-80
2023/09/16 05:43:39;;;;;;;9.23;6.70;;;;;;;;;;4951072;29;20801;-79
2023/09/16 05:46:06;;;;;;;8.20;6.77;;;;;;;;;;4932185;29;20179;-81
2023/09/16 05:48:32;;;;;;;8.63;6.27;;;;;;;;;;4932111;29;20201;-80
2023/09/16 05:50:59;;;;;;;9.57;7.20;;;;;;;;;;4951562;29;20191;-80
2023/09/16 05:53:28;;;;;;;8.47;7.37;;;;;;;;;;4936133;29;20196;-80
2023/09/16 05:56:01;;;;;;;9.63;7.23;;;;;;;;;;4951476;29;20236;-80
2023/09/16 05:58:27;;;;;;;12.53;7.40;;;;;;;;;;4960424;28;20567;-79
2023/09/16 06:00:55;;;;;;;10.23;7.83;;;;;;;;;;4950579;29;20204;-81
2023/09/16 06:03:21;;;;;;;14.47;9.10;;;;;;;;;;4952154;29;20221;-81
2023/09/16 06:05:48;;;;;;;29.00;9.40;;;;;;;;;;4936830;29;20563;-78
2023/09/16 06:08:14;;;;;;;18.57;7.97;;;;;;;;;;4951049;29;20205;-75
2023/09/16 06:10:40;;;;;;;25.80;9.07;;;;;;;;;;4955665;28;20222;-79
2023/09/16 06:13:06;;;;;;;28.03;9.23;;;;;;;;;;4928871;29;20200;-81
2023/09/16 06:15:33;;;;;;;26.43;9.23;;;;;;;;;;4951366;29;20200;-83
2023/09/16 06:17:59;;;;;;;20.60;9.03;;;;;;;;;;4952067;29;20668;-84
2023/09/16 06:20:25;;;;;;;24.33;9.13;;;;;;;;;;4948230;29;20190;-85
2023/09/16 06:22:51;;;;;;;23.50;9.00;;;;;;;;;;4953313;29;20201;-81
2023/09/16 06:25:18;;;;;;;17.00;8.07;;;;;;;;;;4954003;29;20186;-85
2023/09/16 06:27:44;;;;;;;22.00;8.77;;;;;;;;;;4935561;29;20209;-85
2023/09/16 06:30:10;;;;;;;15.00;7.20;;;;;;;;;;4953932;29;20193;-85
2023/09/16 06:32:37;;;;;;;15.80;8.27;;;;;;;;;;4937577;29;20181;-85
2023/09/16 06:35:04;;;;;;;15.13;7.33;;;;;;;;;;4938454;29;20201;-85
2023/09/16 06:37:30;;;;;;;16.13;7.63;;;;;;;;;;4937982;29;20213;-86
2023/09/16 06:39:57;;;;;;;18.90;7.40;;;;;;;;;;4938750;29;20848;-84
2023/09/16 06:42:23;;;;;;;10.60;7.20;;;;;;;;;;4942614;29;20216;-84
2023/09/16 06:44:54;;;;;;;10.77;8.27;;;;;;;;;;4920994;29;20189;-84
2023/09/16 06:47:26;;;;;;;10.30;8.50;;;;;;;;;;4921799;29;20225;-85
2023/09/16 06:49:52;;;;;;;11.30;8.23;;;;;;;;;;4920618;29;20189;-85
2023/09/16 06:52:19;;;;;;;11.90;8.20;;;;;;;;;;4950839;29;20654;-85
2023/09/16 06:54:45;;;;;;;10.20;8.10;;;;;;;;;;4935312;29;20208;-85
2023/09/16 06:57:11;;;;;;;12.33;8.13;;;;;;;;;;4942136;29;20700;-84
2023/09/16 06:59:37;;;;;;;9.70;7.97;;;;;;;;;;4954451;28;20256;-84
2023/09/16 07:02:03;;;;;;;14.33;8.37;;;;;;;;;;4936576;29;20193;-85
2023/09/16 07:04:29;;;;;;;15.33;7.83;;;;;;;;;;4935907;29;20181;-85
2023/09/16 07:06:56;;;;;;;9.90;6.93;;;;;;;;;;4935628;29;20219;-83
2023/09/16 07:09:22;;;;;;;11.40;6.90;;;;;;;;;;4950333;29;20181;-85
2023/09/16 07:11:49;;;;;;;11.73;7.17;;;;;;;;;;4950314;29;20811;-85
2023/09/16 07:14:15;;;;;;;12.73;7.20;;;;;;;;;;4952494;29;20181;-84
2023/09/16 07:16:41;;;;;;;10.20;6.90;;;;;;;;;;4948587;29;20276;-84
2023/09/16 07:19:08;;;;;;;12.53;7.40;;;;;;;;;;4952155;29;20349;-84
2023/09/16 07:21:34;;;;;;;14.57;7.97;;;;;;;;;;4934919;29;20186;-85
2023/09/16 07:24:01;;;;;;;11.57;6.83;;;;;;;;;;4948357;29;20267;-85
2023/09/16 07:26:30;;;;;;;14.90;6.60;;;;;;;;;;4948571;29;20193;-85
2023/09/16 07:28:57;;;;;;;9.40;7.60;;;;;;;;;;4966124;28;20712;-84
2023/09/16 07:31:23;;;;;;;14.53;7.50;;;;;;;;;;4958283;28;20220;-84
2023/09/16 07:33:49;;;;;;;12.93;7.10;;;;;;;;;;4940462;29;20189;-77
2023/09/16 07:36:16;;;;;;;12.83;7.70;;;;;;;;;;4951172;29;20559;-84
2023/09/16 07:38:42;;;;;;;13.20;7.50;;;;;;;;;;4951583;29;20260;-82
2023/09/16 07:41:08;;;;;;;15.40;7.97;;;;;;;;;;4950752;29;20192;-83
2023/09/16 07:43:34;;;;;;;11.27;7.60;;;;;;;;;;4950260;28;20413;-83
2023/09/16 07:46:00;;;;;;;8.07;7.17;;;;;;;;;;4968219;28;20192;-85
2023/09/16 07:48:26;;;;;;;11.10;7.53;;;;;;;;;;4951681;29;20209;-85
2023/09/16 07:50:54;;;;;;;9.03;7.00;;;;;;;;;;4953507;28;20204;-84
2023/09/16 07:53:20;;;;;;;10.87;7.90;;;;;;;;;;4952179;29;20185;-84
2023/09/16 07:55:47;;;;;;;9.50;8.50;;;;;;;;;;4952557;28;20237;-85
2023/09/16 07:58:13;;;;;;;12.80;8.67;;;;;;;;;;4955993;29;20216;-82
2023/09/16 08:00:39;;;;;;;8.77;7.87;;;;;;;;;;4957612;29;20204;-82
2023/09/16 08:03:05;;;;;;;9.80;8.17;;;;;;;;;;4958000;29;20204;-83
2023/09/16 08:05:32;;;;;;;9.10;8.30;;;;;;;;;;4956642;28;20184;-83
2023/09/16 08:07:58;;;;;;;9.67;8.40;;;;;;;;;;4955527;29;20586;-82
2023/09/16 08:10:24;;;;;;;8.77;7.97;;;;;;;;;;4955819;29;20272;-79
2023/09/16 08:12:50;;;;;;;8.93;8.03;;;;;;;;;;4957505;29;20240;-80
2023/09/16 08:15:16;;;;;;;9.10;8.23;;;;;;;;;;4952133;29;20272;-84
2023/09/16 08:17:42;;;;;;;9.33;7.90;;;;;;;;;;4953720;29;20228;-85
2023/09/16 08:20:09;;;;;;;11.27;7.60;;;;;;;;;;4953962;29;20240;-84
2023/09/16 08:22:36;;;;;;;9.07;8.17;;;;;;;;;;4955938;28;20213;-79
2023/09/16 08:25:03;;;;;;;8.13;7.13;;;;;;;;;;4953483;29;20181;-90
2023/09/16 08:27:29;;;;;;;8.43;7.63;;;;;;;;;;4938007;29;20946;-85
2023/09/16 08:29:55;;;;;;;7.60;6.80;;;;;;;;;;4956017;29;20189;-85
2023/09/16 08:32:24;;;;;;;11.57;6.70;;;;;;;;;;4944324;29;20213;-85
2023/09/16 08:34:50;;;;;;;7.93;6.33;;;;;;;;;;4954286;29;20259;-85
2023/09/16 08:37:17;;;;;;;7.93;7.13;;;;;;;;;;4952100;29;20206;-85
2023/09/16 08:39:44;;;;;;;8.70;6.50;;;;;;;;;;4940223;29;20284;-84
2023/09/16 08:42:33;;;;;;;7.43;6.20;;;;;;;;;;4940623;29;20295;-85
2023/09/16 08:45:02;;;;;;;6.90;6.30;;;;;;;;;;4940193;29;20189;-85
2023/09/16 08:47:29;;;;;;;7.57;6.77;;;;;;;;;;4922218;29;20328;-85
2023/09/16 08:50:00;;;;;;;7.40;6.23;;;;;;;;;;4940574;29;20189;-85
2023/09/16 08:52:29;;;;;;;7.00;6.40;;;;;;;;;;4938477;29;20201;-85
2023/09/16 08:54:56;;;;;;;7.57;6.73;;;;;;;;;;4958642;29;20343;-85
2023/09/16 08:57:22;;;;;;;8.20;7.07;;;;;;;;;;4973534;28;20205;-85
2023/09/16 08:59:49;;;;;;;7.37;6.67;;;;;;;;;;4939155;29;20268;-84
2023/09/16 09:02:16;;;;;;;7.17;6.47;;;;;;;;;;4960977;29;20213;-85
2023/09/16 09:04:42;;;;;;;7.30;6.60;;;;;;;;;;4939329;29;20182;-85
2023/09/16 09:07:09;;;;;;;7.20;6.50;;;;;;;;;;4955348;28;20205;-85
2023/09/16 09:09:35;;;;;;;7.27;6.60;;;;;;;;;;4954946;29;20232;-85
2023/09/16 09:12:04;;;;;;;7.17;6.23;;;;;;;;;;4950592;28;20212;-85
2023/09/16 09:14:31;;;;;;;8.87;7.97;;;;;;;;;;4957496;29;20603;-86
2023/09/16 09:17:06;;;;;;;7.67;7.00;;;;;;;;;;4941741;29;20283;-85
2023/09/16 09:19:33;;;;;;;7.17;6.57;;;;;;;;;;4937198;29;20190;-85
2023/09/16 09:22:03;;;;;;;7.00;6.40;;;;;;;;;;4968451;28;20193;-85
2023/09/16 09:24:30;;;;;;;7.27;6.57;;;;;;;;;;4955129;28;20184;-85
2023/09/16 09:26:57;;;;;;;6.60;5.97;;;;;;;;;;4954296;28;20568;-85
2023/09/16 09:29:27;;;;;;;7.10;6.50;;;;;;;;;;4950362;29;20177;-85
2023/09/16 09:31:54;;;;;;;7.60;6.80;;;;;;;;;;4953342;29;20600;-85
2023/09/16 09:34:21;;;;;;;7.70;6.97;;;;;;;;;;4969334;28;20661;-85
2023/09/16 09:36:47;;;;;;;7.37;6.47;;;;;;;;;;4946609;29;20707;-86
2023/09/16 09:39:14;;;;;;;6.43;5.93;;;;;;;;;;4937410;29;20204;-85
2023/09/16 09:41:45;;;;;;;7.77;6.70;;;;;;;;;;4952867;29;20179;-85
2023/09/16 09:44:23;;;;;;;7.97;5.97;;;;;;;;;;4969013;28;20193;-85
2023/09/16 09:46:52;;;;;;;8.63;7.20;;;;;;;;;;4969382;28;20355;-85
2023/09/16 09:49:46;;;;;;;7.83;6.93;;;;;;;;;;4908382;29;20642;-85
2023/09/16 09:52:14;;;;;;;7.03;6.33;;;;;;;;;;4897274;29;20557;-85
2023/09/16 09:54:46;;;;;;;7.07;6.33;;;;;;;;;;4968171;28;20624;-85
2023/09/16 09:57:17;;;;;;;7.03;6.33;;;;;;;;;;4923842;29;20232;-87
2023/09/16 09:59:43;;;;;;;7.33;6.73;;;;;;;;;;4939016;29;20200;-85
2023/09/16 10:02:10;;;;;;;7.13;6.43;;;;;;;;;;4939029;29;20779;-85
2023/09/16 10:04:36;;;;;;;7.73;6.23;;;;;;;;;;4923221;29;20185;-85
2023/09/16 10:07:04;;;;;;;7.93;6.60;;;;;;;;;;4938051;29;20232;-85
2023/09/16 10:09:30;;;;;;;9.07;5.93;;;;;;;;;;4922774;29;20696;-85
2023/09/16 10:11:57;;;;;;;7.03;6.37;;;;;;;;;;4920398;29;20188;-85
2023/09/16 10:14:32;;;;;;;8.57;6.70;;;;;;;;;;4925928;29;20676;-85
2023/09/16 10:17:03;;;;;;;6.87;6.10;;;;;;;;;;4952108;29;20368;-85
2023/09/16 10:19:30;;;;;;;8.47;6.57;;;;;;;;;;4924546;29;20200;-85
2023/09/16 10:21:56;;;;;;;7.37;6.20;;;;;;;;;;4920794;29;20552;-85
2023/09/16 10:24:22;;;;;;;6.67;6.07;;;;;;;;;;4951882;28;20182;-85
2023/09/16 10:26:49;;;;;;;6.33;5.70;;;;;;;;;;4933873;29;20209;-86
2023/09/16 10:29:15;;;;;;;6.47;5.87;;;;;;;;;;4935202;29;20646;-86
2023/09/16 10:31:42;;;;;;;6.53;5.90;;;;;;;;;;4935300;29;20223;-86
2023/09/16 10:34:09;;;;;;;9.00;6.30;;;;;;;;;;4935133;29;20653;-85
2023/09/16 10:36:36;;;;;;;6.83;6.20;;;;;;;;;;4919130;29;20272;-85
2023/09/16 10:39:02;;;;;;;9.80;5.77;;;;;;;;;;4934860;29;20217;-85
2023/09/16 10:41:29;;;;;;;7.30;6.60;;;;;;;;;;4950707;29;20916;-86
2023/09/16 10:43:58;;;;;;;7.37;6.63;;;;;;;;;;4951789;28;20216;-85
2023/09/16 10:46:24;;;;;;;8.33;5.67;;;;;;;;;;4949352;29;20509;-86
2023/09/16 10:48:51;;;;;;;6.27;5.67;;;;;;;;;;4950311;29;20194;-86
2023/09/16 10:51:23;;;;;;;6.93;5.77;;;;;;;;;;4938103;29;20322;-86
2023/09/16 10:53:58;;;;;;;6.17;5.40;;;;;;;;;;4950410;29;20198;-86
2023/09/16 10:56:30;;;;;;;6.60;6.00;;;;;;;;;;4949835;29;20221;-86
2023/09/16 10:58:59;;;;;;;6.73;6.10;;;;;;;;;;4934492;29;20207;-86
2023/09/16 11:01:30;;;;;;;7.13;6.33;;;;;;;;;;4949862;29;20186;-86
2023/09/16 11:03:58;;;;;;;6.10;5.50;;;;;;;;;;4951442;28;20599;-86
2023/09/16 11:06:24;;;;;;;5.90;5.30;;;;;;;;;;4934264;29;20255;-86
2023/09/16 11:08:50;;;;;;;6.33;5.70;;;;;;;;;;4933946;29;20747;-86
2023/09/16 11:11:17;;;;;;;6.20;5.47;;;;;;;;;;4955041;28;20185;-86
2023/09/16 11:13:44;;;;;;;6.60;5.57;;;;;;;;;;4951181;28;20197;-86
2023/09/16 11:16:11;;;;;;;6.40;5.50;;;;;;;;;;4964683;28;20210;-87
2023/09/16 11:18:42;;;;;;;7.23;5.70;;;;;;;;;;4933432;29;20236;-86
2023/09/16 11:21:08;;;;;;;6.37;5.77;;;;;;;;;;4929340;29;20184;-85
2023/09/16 11:23:35;;;;;;;6.43;5.67;;;;;;;;;;4951671;28;20216;-81
2023/09/16 11:26:04;;;;;;;6.13;5.37;;;;;;;;;;4967505;28;20235;-82
2023/09/16 11:28:30;;;;;;;6.43;5.90;;;;;;;;;;4951386;28;20201;-85
2023/09/16 11:31:03;;;;;;;6.10;5.47;;;;;;;;;;4937480;29;20185;-86
2023/09/16 11:33:33;;;;;;;5.93;5.43;;;;;;;;;;4967360;28;20189;-84
2023/09/16 11:36:09;;;;;;;6.27;5.67;;;;;;;;;;4952947;28;20185;-85
2023/09/16 11:38:35;;;;;;;6.13;5.53;;;;;;;;;;4933337;29;20560;-85
2023/09/16 11:41:09;;;;;;;5.87;5.30;;;;;;;;;;4952588;29;20244;-85
2023/09/16 11:43:38;;;;;;;5.73;5.23;;;;;;;;;;4921916;29;20300;-86
2023/09/16 11:46:06;;;;;;;5.30;4.80;;;;;;;;;;4951482;28;20197;-86
2023/09/16 11:49:05;;;;;;;5.10;4.70;;;;;;;;;;4915457;29;20296;-86
2023/09/16 11:51:36;;;;;;;6.03;4.80;;;;;;;;;;4913521;29;20355;-86
2023/09/16 11:54:03;;;;;;;7.63;4.80;;;;;;;;;;4950219;29;20181;-85
2023/09/16 11:56:29;;;;;;;5.10;4.70;;;;;;;;;;4930365;29;20196;-85
2023/09/16 11:58:56;;;;;;;5.03;4.63;;;;;;;;;;4947315;29;20201;-83
2023/09/16 12:01:23;;;;;;;5.47;4.93;;;;;;;;;;4944193;28;20195;-86
2023/09/16 12:03:50;;;;;;;4.90;4.50;;;;;;;;;;4949439;28;20224;-83
2023/09/16 12:06:20;;;;;;;4.90;4.50;;;;;;;;;;4949712;29;20297;-86
2023/09/16 12:08:46;;;;;;;4.63;4.20;;;;;;;;;;4936332;28;20199;-87
2023/09/16 12:11:13;;;;;;;4.63;4.23;;;;;;;;;;4916019;29;20295;-81
2023/09/16 12:13:42;;;;;;;4.50;4.10;;;;;;;;;;4955033;28;20256;-84
2023/09/16 12:16:11;;;;;;;4.40;4.10;;;;;;;;;;4956730;28;20232;-86
2023/09/16 12:18:37;;;;;;;4.70;4.30;;;;;;;;;;4950315;29;20213;-83
2023/09/16 12:21:05;;;;;;;4.70;4.30;;;;;;;;;;4966796;28;20220;-83
2023/09/16 12:23:31;;;;;;;4.20;3.90;;;;;;;;;;4952718;28;20212;-84
2023/09/16 12:25:58;;;;;;;4.57;4.10;;;;;;;;;;4936175;29;20871;-85
2023/09/16 12:28:24;;;;;;;4.30;3.60;;;;;;;;;;4964479;28;20288;-84
2023/09/16 12:30:51;;;;;;;4.80;4.27;;;;;;;;;;4949850;29;20195;-84
2023/09/16 12:33:20;;;;;;;4.20;3.80;;;;;;;;;;4949585;29;20182;-87
2023/09/16 12:35:47;;;;;;;4.10;3.80;;;;;;;;;;4950735;29;20201;-83
2023/09/16 12:38:16;;;;;;;5.27;3.70;;;;;;;;;;4933898;29;20557;-87
2023/09/16 12:40:44;;;;;;;4.27;3.97;;;;;;;;;;4950882;28;20199;-84
2023/09/16 12:43:11;;;;;;;3.87;3.57;;;;;;;;;;4935804;29;20230;-84
2023/09/16 12:45:37;;;;;;;4.97;3.90;;;;;;;;;;4952395;29;20185;-84
2023/09/16 12:48:04;;;;;;;4.57;3.60;;;;;;;;;;4936134;29;20686;-87
2023/09/16 12:50:31;;;;;;;3.70;3.30;;;;;;;;;;4953125;29;20184;-87
2023/09/16 12:52:57;;;;;;;4.23;3.33;;;;;;;;;;4952281;29;20181;-86
2023/09/16 12:55:25;;;;;;;4.63;3.73;;;;;;;;;;4944642;29;20321;-86
2023/09/16 12:57:52;;;;;;;4.33;3.80;;;;;;;;;;4950557;29;20222;-83
2023/09/16 13:00:22;;;;;;;4.00;3.60;;;;;;;;;;4953433;28;20725;-83
2023/09/16 13:02:49;;;;;;;4.03;3.67;;;;;;;;;;4971181;28;20217;-82
2023/09/16 13:05:16;;;;;;;3.50;3.30;;;;;;;;;;4936408;29;20720;-81
2023/09/16 13:07:44;;;;;;;3.97;3.67;;;;;;;;;;4956309;29;20255;-82
2023/09/16 13:10:11;;;;;;;3.60;3.30;;;;;;;;;;4952280;28;20219;-81
2023/09/16 13:12:37;;;;;;;3.80;3.50;;;;;;;;;;4958523;28;20182;-82
2023/09/16 13:15:03;;;;;;;4.23;3.60;;;;;;;;;;4954286;29;20212;-83
2023/09/16 13:17:32;;;;;;;3.60;3.30;;;;;;;;;;4938867;29;20272;-82
2023/09/16 13:20:00;;;;;;;3.60;3.30;;;;;;;;;;4955053;29;20550;-82
2023/09/16 13:22:27;;;;;;;3.60;3.30;;;;;;;;;;4958961;29;20211;-82
2023/09/16 13:24:53;;;;;;;3.50;3.20;;;;;;;;;;4956521;29;20182;-81
2023/09/16 13:27:19;;;;;;;3.40;3.10;;;;;;;;;;4957680;28;20204;-79
2023/09/16 13:29:46;;;;;;;3.20;3.00;;;;;;;;;;4951841;29;20228;-89
2023/09/16 13:32:12;;;;;;;3.57;3.13;;;;;;;;;;4957398;28;20197;-88
2023/09/16 13:34:44;;;;;;;4.33;3.03;;;;;;;;;;4935303;29;20190;-89
2023/09/16 13:37:10;;;;;;;4.93;2.80;;;;;;;;;;4934255;29;20212;-89
2023/09/16 13:39:44;;;;;;;3.87;3.10;;;;;;;;;;4948821;29;20212;-89
2023/09/16 13:42:10;;;;;;;3.30;3.00;;;;;;;;;;4936825;29;20252;-89
2023/09/16 13:44:36;;;;;;;3.23;3.00;;;;;;;;;;4952296;29;20211;-88
2023/09/16 13:47:03;;;;;;;3.50;3.20;;;;;;;;;;4951200;29;20210;-88
2023/09/16 13:49:30;;;;;;;3.57;3.27;;;;;;;;;;4967932;28;20236;-88
2023/09/16 13:51:56;;;;;;;3.50;3.20;;;;;;;;;;4916775;29;20641;-89
2023/09/16 13:54:23;;;;;;;3.50;3.20;;;;;;;;;;4967730;28;20196;-88
2023/09/16 13:56:49;;;;;;;3.47;3.27;;;;;;;;;;4935817;29;20210;-88
2023/09/16 13:59:15;;;;;;;3.40;3.10;;;;;;;;;;4965947;28;20567;-88
2023/09/16 14:01:42;;;;;;;3.67;3.37;;;;;;;;;;4950537;29;20205;-88
2023/09/16 14:04:08;;;;;;;4.00;3.47;;;;;;;;;;4932339;29;20219;-88
2023/09/16 14:06:34;;;;;;;3.93;3.50;;;;;;;;;;4949443;29;20692;-88
2023/09/16 14:09:04;;;;;;;3.57;3.27;;;;;;;;;;4953190;28;20239;-88
2023/09/16 14:11:30;;;;;;;5.00;3.17;;;;;;;;;;4967590;28;20196;-89
2023/09/16 14:13:57;;;;;;;4.10;3.80;;;;;;;;;;4948975;29;20244;-88
2023/09/16 14:16:23;;;;;;;3.63;3.43;;;;;;;;;;4932605;29;20269;-88
2023/09/16 14:18:49;;;;;;;3.70;3.40;;;;;;;;;;4951852;29;20226;-80
2023/09/16 14:21:16;;;;;;;4.60;3.60;;;;;;;;;;4956362;28;20703;-84
2023/09/16 14:23:42;;;;;;;3.83;3.53;;;;;;;;;;4966659;28;20210;-81
2023/09/16 14:26:08;;;;;;;3.50;3.20;;;;;;;;;;4958557;28;20256;-84
2023/09/16 14:28:34;;;;;;;3.90;2.93;;;;;;;;;;4972498;28;20245;-84
2023/09/16 14:31:10;;;;;;;3.80;3.50;;;;;;;;;;4953801;29;20179;-83
2023/09/16 14:33:36;;;;;;;3.60;3.30;;;;;;;;;;4937025;29;20633;-84
2023/09/16 14:36:03;;;;;;;3.57;3.27;;;;;;;;;;4954639;29;20191;-81
2023/09/16 14:38:29;;;;;;;5.00;3.30;;;;;;;;;;4950077;29;20208;-84
2023/09/16 14:40:56;;;;;;;3.40;3.10;;;;;;;;;;4938959;29;20743;-82